sensor_id;sensor_type;location;lat;lon;timestamp;pressure;altitude;pressure_sealevel;temperature;humidity
46682;BME280;34101;53.430;-2.224;2023-02-28T00:01:13;49289.07;;;-148.94;100.00
46682;BME280;34101;53.430;-2.224;2023-02-28T00:03:40;49251.83;;;-148.94;100.00
46682;BME280;34101;53.430;-2.224;2023-02-28T00:06:09;49120.03;;;-148.94;100.00
46682;BME280;34101;53.430;-2.224;2023-02-28T00:08:37;49133.08;;;-148.94;100.00
46682;BME280;34101;53.430;-2.224;2023-02-28T00:11:06;49440.20;;;-148.94;100.00
46682;BME280;34101;53.430;-2.224;2023-02-28T00:13:36;49271.79;;;-148.94;100.00
46682;BME280;34101;53.430;-2.224;2023-02-28T00:16:06;49166.35;;;-148.94;100.00
46682;BME280;34101;53.430;-2.224;2023-02-28T00:18:34;49124.64;;;-148.94;100.00
46682;BME280;34101;53.430;-2.224;2023-02-28T00:21:01;49175.31;;;-148.94;100.00
46682;BME280;34101;53.430;-2.224;2023-02-28T00:23:28;49311.85;;;-148.94;100.00
46682;BME280;34101;53.430;-2.224;2023-02-28T00:25:56;49465.15;;;-148.94;100.00
46682;BME280;34101;53.430;-2.224;2023-02-28T00:28:23;49494.20;;;-148.94;100.00
46682;BME280;34101;53.430;-2.224;2023-02-28T00:30:51;49703.57;;;-148.94;100.00
46682;BME280;34101;53.430;-2.224;2023-02-28T00:33:18;49709.84;;;-148.94;100.00
46682;BME280;34101;53.430;-2.224;2023-02-28T00:35:45;49723.15;;;-148.94;100.00
46682;BME280;34101;53.430;-2.224;2023-02-28T00:38:13;49720.33;;;-148.94;100.00
46682;BME280;34101;53.430;-2.224;2023-02-28T00:40:40;49686.29;;;-148.94;100.00
46682;BME280;34101;53.430;-2.224;2023-02-28T00:43:08;49731.08;;;-148.94;100.00
46682;BME280;34101;53.430;-2.224;2023-02-28T00:45:35;50089.18;;;-148.94;100.00
46682;BME280;34101;53.430;-2.224;2023-02-28T00:48:03;50023.40;;;-148.94;100.00
46682;BME280;34101;53.430;-2.224;2023-02-28T00:50:30;49852.03;;;-148.94;100.00
46682;BME280;34101;53.430;-2.224;2023-02-28T00:52:58;49710.86;;;-148.94;100.00
46682;BME280;34101;53.430;-2.224;2023-02-28T00:55:25;49684.37;;;-148.94;100.00
46682;BME280;34101;53.430;-2.224;2023-02-28T00:57:52;49830.91;;;-148.94;100.00
46682;BME280;34101;53.430;-2.224;2023-02-28T01:00:20;49836.28;;;-148.94;100.00
46682;BME280;34101;53.430;-2.224;2023-02-28T01:02:47;49759.88;;;-148.94;100.00
46682;BME280;34101;53.430;-2.224;2023-02-28T01:05:15;49631.77;;;-148.94;100.00
46682;BME280;34101;53.430;-2.224;2023-02-28T01:07:42;49543.60;;;-148.94;100.00
46682;BME280;34101;53.430;-2.224;2023-02-28T01:10:10;49717.65;;;-148.94;100.00
46682;BME280;34101;53.430;-2.224;2023-02-28T01:12:38;49754.25;;;-148.94;100.00
46682;BME280;34101;53.430;-2.224;2023-02-28T01:15:06;50038.76;;;-148.94;100.00
46682;BME280;34101;53.430;-2.224;2023-02-28T01:17:33;50105.44;;;-148.94;100.00
46682;BME280;34101;53.430;-2.224;2023-02-28T01:20:00;50169.56;;;-148.94;100.00
46682;BME280;34101;53.430;-2.224;2023-02-28T01:22:28;50025.32;;;-148.94;100.00
46682;BME280;34101;53.430;-2.224;2023-02-28T01:24:55;50051.17;;;-148.94;100.00
46682;BME280;34101;53.430;-2.224;2023-02-28T01:27:22;49874.55;;;-148.94;100.00
46682;BME280;34101;53.430;-2.224;2023-02-28T01:29:51;49852.15;;;-148.94;100.00
46682;BME280;34101;53.430;-2.224;2023-02-28T01:32:18;49958.89;;;-148.94;100.00
46682;BME280;34101;53.430;-2.224;2023-02-28T01:34:45;50123.10;;;-148.94;100.00
46682;BME280;34101;53.430;-2.224;2023-02-28T01:37:13;50200.15;;;-148.94;100.00
46682;BME280;34101;53.430;-2.224;2023-02-28T01:39:40;50284.89;;;-148.94;100.00
46682;BME280;34101;53.430;-2.224;2023-02-28T01:42:09;50109.02;;;-148.94;100.00
46682;BME280;34101;53.430;-2.224;2023-02-28T01:45:20;50254.94;;;-148.94;100.00
46682;BME280;34101;53.430;-2.224;2023-02-28T01:47:50;50154.33;;;-148.94;100.00
46682;BME280;34101;53.430;-2.224;2023-02-28T01:50:21;50030.05;;;-148.94;100.00
46682;BME280;34101;53.430;-2.224;2023-02-28T01:52:50;49984.75;;;-148.94;100.00
46682;BME280;34101;53.430;-2.224;2023-02-28T01:55:21;50187.61;;;-148.94;100.00
46682;BME280;34101;53.430;-2.224;2023-02-28T01:57:52;50359.38;;;-148.94;100.00
46682;BME280;34101;53.430;-2.224;2023-02-28T02:00:24;50326.61;;;-148.94;100.00
46682;BME280;34101;53.430;-2.224;2023-02-28T02:02:55;50135.65;;;-148.94;100.00
46682;BME280;34101;53.430;-2.224;2023-02-28T02:05:26;50168.41;;;-148.94;100.00
46682;BME280;34101;53.430;-2.224;2023-02-28T02:07:56;50208.09;;;-148.94;100.00
46682;BME280;34101;53.430;-2.224;2023-02-28T02:10:29;50306.77;;;-148.94;100.00
46682;BME280;34101;53.430;-2.224;2023-02-28T02:13:10;50564.70;;;-148.94;100.00
46682;BME280;34101;53.430;-2.224;2023-02-28T02:15:47;50620.25;;;-148.94;100.00
46682;BME280;34101;53.430;-2.224;2023-02-28T02:18:24;50681.95;;;-148.94;100.00
46682;BME280;34101;53.430;-2.224;2023-02-28T02:21:11;50701.54;;;-148.94;100.00
46682;BME280;34101;53.430;-2.224;2023-02-28T02:23:57;50599.26;;;-148.94;100.00
46682;BME280;34101;53.430;-2.224;2023-02-28T02:27:17;50540.12;;;-148.94;100.00
46682;BME280;34101;53.430;-2.224;2023-02-28T02:30:14;50516.70;;;-148.94;100.00
46682;BME280;34101;53.430;-2.224;2023-02-28T02:33:18;50483.93;;;-148.94;100.00
46682;BME280;34101;53.430;-2.224;2023-02-28T02:35:54;50392.15;;;-148.94;100.00
46682;BME280;34101;53.430;-2.224;2023-02-28T02:38:31;50262.36;;;-148.94;100.00
46682;BME280;34101;53.430;-2.224;2023-02-28T02:41:06;50222.81;;;-148.94;100.00
46682;BME280;34101;53.430;-2.224;2023-02-28T02:43:37;50407.51;;;-148.94;100.00
46682;BME280;34101;53.430;-2.224;2023-02-28T02:46:12;50447.70;;;-148.94;100.00
46682;BME280;34101;53.430;-2.224;2023-02-28T02:48:42;50307.67;;;-148.94;100.00
46682;BME280;34101;53.430;-2.224;2023-02-28T02:51:14;50295.77;;;-148.94;100.00
46682;BME280;34101;53.430;-2.224;2023-02-28T02:53:47;50345.17;;;-148.94;100.00
46682;BME280;34101;53.430;-2.224;2023-02-28T02:56:19;50343.00;;;-148.94;100.00
46682;BME280;34101;53.430;-2.224;2023-02-28T02:58:49;50480.34;;;-148.94;100.00
46682;BME280;34101;53.430;-2.224;2023-02-28T03:01:21;50529.75;;;-148.94;100.00
46682;BME280;34101;53.430;-2.224;2023-02-28T03:03:49;50493.53;;;-148.94;100.00
46682;BME280;34101;53.430;-2.224;2023-02-28T03:06:16;50394.97;;;-148.94;100.00
46682;BME280;34101;53.430;-2.224;2023-02-28T03:08:44;50512.47;;;-148.94;100.00
46682;BME280;34101;53.430;-2.224;2023-02-28T03:11:13;50666.34;;;-148.94;100.00
46682;BME280;34101;53.430;-2.224;2023-02-28T03:13:55;50513.75;;;-148.94;100.00
46682;BME280;34101;53.430;-2.224;2023-02-28T03:16:35;50568.03;;;-148.94;100.00
46682;BME280;34101;53.430;-2.224;2023-02-28T03:19:17;50499.16;;;-148.94;100.00
46682;BME280;34101;53.430;-2.224;2023-02-28T03:21:56;50419.41;;;-148.94;100.00
46682;BME280;34101;53.430;-2.224;2023-02-28T03:24:33;50353.62;;;-148.94;100.00
46682;BME280;34101;53.430;-2.224;2023-02-28T03:27:07;50276.18;;;-148.94;100.00
46682;BME280;34101;53.430;-2.224;2023-02-28T03:29:40;50437.08;;;-148.94;100.00
46682;BME280;34101;53.430;-2.224;2023-02-28T03:32:17;50479.70;;;-148.94;100.00
46682;BME280;34101;53.430;-2.224;2023-02-28T03:34:50;50407.25;;;-148.94;100.00
46682;BME280;34101;53.430;-2.224;2023-02-28T03:37:23;50588.12;;;-148.94;100.00
46682;BME280;34101;53.430;-2.224;2023-02-28T03:39:55;50629.73;;;-148.94;100.00
46682;BME280;34101;53.430;-2.224;2023-02-28T03:42:27;50668.90;;;-148.94;100.00
46682;BME280;34101;53.430;-2.224;2023-02-28T03:44:58;50806.64;;;-148.94;100.00
46682;BME280;34101;53.430;-2.224;2023-02-28T03:47:31;51092.25;;;-148.94;100.00
46682;BME280;34101;53.430;-2.224;2023-02-28T03:50:03;51090.07;;;-148.94;100.00
46682;BME280;34101;53.430;-2.224;2023-02-28T03:52:34;51210.41;;;-148.94;100.00
46682;BME280;34101;53.430;-2.224;2023-02-28T03:55:07;51330.76;;;-148.94;100.00
46682;BME280;34101;53.430;-2.224;2023-02-28T03:57:41;51291.20;;;-148.94;100.00
46682;BME280;34101;53.430;-2.224;2023-02-28T04:00:14;51241.78;;;-148.94;100.00
46682;BME280;34101;53.430;-2.224;2023-02-28T04:02:45;51194.67;;;-148.94;100.00
46682;BME280;34101;53.430;-2.224;2023-02-28T04:05:12;51011.46;;;-148.94;100.00
46682;BME280;34101;53.430;-2.224;2023-02-28T04:07:40;51028.62;;;-148.94;100.00
46682;BME280;34101;53.430;-2.224;2023-02-28T04:10:09;50981.38;;;-148.94;100.00
46682;BME280;34101;53.430;-2.224;2023-02-28T04:12:38;51188.39;;;-148.94;100.00
46682;BME280;34101;53.430;-2.224;2023-02-28T04:15:07;51316.93;;;-148.94;100.00
46682;BME280;34101;53.430;-2.224;2023-02-28T04:17:34;51303.75;;;-148.94;100.00
46682;BME280;34101;53.430;-2.224;2023-02-28T04:20:01;51220.27;;;-148.94;100.00
46682;BME280;34101;53.430;-2.224;2023-02-28T04:22:29;51299.90;;;-148.94;100.00
46682;BME280;34101;53.430;-2.224;2023-02-28T04:24:56;51264.57;;;-148.94;100.00
46682;BME280;34101;53.430;-2.224;2023-02-28T04:27:24;51291.97;;;-148.94;100.00
46682;BME280;34101;53.430;-2.224;2023-02-28T04:29:51;51162.02;;;-148.94;100.00
46682;BME280;34101;53.430;-2.224;2023-02-28T04:32:18;50990.08;;;-148.94;100.00
46682;BME280;34101;53.430;-2.224;2023-02-28T04:34:46;50893.17;;;-148.94;100.00
46682;BME280;34101;53.430;-2.224;2023-02-28T04:37:13;51064.34;;;-148.94;100.00
46682;BME280;34101;53.430;-2.224;2023-02-28T04:39:41;51057.94;;;-148.94;100.00
46682;BME280;34101;53.430;-2.224;2023-02-28T04:42:09;51206.44;;;-148.94;100.00
46682;BME280;34101;53.430;-2.224;2023-02-28T04:44:37;51256.89;;;-148.94;100.00
46682;BME280;34101;53.430;-2.224;2023-02-28T04:47:05;51478.89;;;-148.94;100.00
46682;BME280;34101;53.430;-2.224;2023-02-28T04:49:32;51590.41;;;-148.94;100.00
46682;BME280;34101;53.430;-2.224;2023-02-28T04:52:00;51436.90;;;-148.94;100.00
46682;BME280;34101;53.430;-2.224;2023-02-28T04:54:27;51332.81;;;-148.94;100.00
46682;BME280;34101;53.430;-2.224;2023-02-28T04:56:55;51239.60;;;-148.94;100.00
46682;BME280;34101;53.430;-2.224;2023-02-28T04:59:23;51322.31;;;-148.94;100.00
46682;BME280;34101;53.430;-2.224;2023-02-28T05:01:50;51418.85;;;-148.94;100.00
46682;BME280;34101;53.430;-2.224;2023-02-28T05:04:18;51394.65;;;-148.94;100.00
46682;BME280;34101;53.430;-2.224;2023-02-28T05:06:45;51521.27;;;-148.94;100.00
46682;BME280;34101;53.430;-2.224;2023-02-28T05:09:12;51317.83;;;-148.94;100.00
46682;BME280;34101;53.430;-2.224;2023-02-28T05:11:41;51212.72;;;-148.94;100.00
46682;BME280;34101;53.430;-2.224;2023-02-28T05:14:11;51190.06;;;-148.94;100.00
46682;BME280;34101;53.430;-2.224;2023-02-28T05:16:39;51312.96;;;-148.94;100.00
46682;BME280;34101;53.430;-2.224;2023-02-28T05:19:06;51195.05;;;-148.94;100.00
46682;BME280;34101;53.430;-2.224;2023-02-28T05:21:35;51279.16;;;-148.94;100.00
46682;BME280;34101;53.430;-2.224;2023-02-28T05:24:05;51224.75;;;-148.94;100.00
46682;BME280;34101;53.430;-2.224;2023-02-28T05:26:36;51142.82;;;-148.94;100.00
46682;BME280;34101;53.430;-2.224;2023-02-28T05:29:03;51208.24;;;-148.94;100.00
46682;BME280;34101;53.430;-2.224;2023-02-28T05:31:30;51301.06;;;-148.94;100.00
46682;BME280;34101;53.430;-2.224;2023-02-28T05:33:58;51501.30;;;-148.94;100.00
46682;BME280;34101;53.430;-2.224;2023-02-28T05:36:25;51515.13;;;-148.94;100.00
46682;BME280;34101;53.430;-2.224;2023-02-28T05:38:53;51691.57;;;-148.94;100.00
46682;BME280;34101;53.430;-2.224;2023-02-28T05:41:20;51653.79;;;-148.94;100.00
46682;BME280;34101;53.430;-2.224;2023-02-28T05:43:48;51700.91;;;-148.94;100.00
46682;BME280;34101;53.430;-2.224;2023-02-28T05:46:15;51791.83;;;-148.94;100.00
46682;BME280;34101;53.430;-2.224;2023-02-28T05:48:45;51915.65;;;-148.94;100.00
46682;BME280;34101;53.430;-2.224;2023-02-28T05:51:12;51985.56;;;-148.94;100.00
46682;BME280;34101;53.430;-2.224;2023-02-28T05:53:40;52098.25;;;-148.94;100.00
46682;BME280;34101;53.430;-2.224;2023-02-28T05:56:07;52280.86;;;-148.94;100.00
46682;BME280;34101;53.430;-2.224;2023-02-28T05:58:35;52149.99;;;-148.94;100.00
46682;BME280;34101;53.430;-2.224;2023-02-28T06:01:21;52109.39;;;-148.94;100.00
46682;BME280;34101;53.430;-2.224;2023-02-28T06:03:48;52358.72;;;-148.94;100.00
46682;BME280;34101;53.430;-2.224;2023-02-28T06:06:16;52461.69;;;-148.94;100.00
46682;BME280;34101;53.430;-2.224;2023-02-28T06:08:43;52519.06;;;-148.94;100.00
46682;BME280;34101;53.430;-2.224;2023-02-28T06:11:11;52388.44;;;-148.94;100.00
46682;BME280;34101;53.430;-2.224;2023-02-28T06:13:39;52396.76;;;-148.94;100.00
46682;BME280;34101;53.430;-2.224;2023-02-28T06:16:06;52270.11;;;-148.94;100.00
46682;BME280;34101;53.430;-2.224;2023-02-28T06:18:33;52226.56;;;-148.94;100.00
46682;BME280;34101;53.430;-2.224;2023-02-28T06:21:01;52096.71;;;-148.94;100.00
46682;BME280;34101;53.430;-2.224;2023-02-28T06:23:28;51932.42;;;-148.94;100.00
46682;BME280;34101;53.430;-2.224;2023-02-28T06:25:56;51806.42;;;-148.94;100.00
46682;BME280;34101;53.430;-2.224;2023-02-28T06:28:23;51841.00;;;-148.94;100.00
46682;BME280;34101;53.430;-2.224;2023-02-28T06:30:50;51788.62;;;-148.94;100.00
46682;BME280;34101;53.430;-2.224;2023-02-28T06:33:18;51869.17;;;-148.94;100.00
46682;BME280;34101;53.430;-2.224;2023-02-28T06:35:47;51838.56;;;-148.94;100.00
46682;BME280;34101;53.430;-2.224;2023-02-28T06:38:13;51795.79;;;-148.94;100.00
46682;BME280;34101;53.430;-2.224;2023-02-28T06:40:41;51867.25;;;-148.94;100.00
46682;BME280;34101;53.430;-2.224;2023-02-28T06:43:08;51794.77;;;-148.94;100.00
46682;BME280;34101;53.430;-2.224;2023-02-28T06:45:36;51761.35;;;-148.94;100.00
46682;BME280;34101;53.430;-2.224;2023-02-28T06:48:03;51754.05;;;-148.94;100.00
46682;BME280;34101;53.430;-2.224;2023-02-28T06:50:31;51654.95;;;-148.94;100.00
46682;BME280;34101;53.430;-2.224;2023-02-28T06:52:58;51680.04;;;-148.94;100.00
46682;BME280;34101;53.430;-2.224;2023-02-28T06:55:26;51754.44;;;-148.94;100.00
46682;BME280;34101;53.430;-2.224;2023-02-28T06:57:53;51899.00;;;-148.94;100.00
46682;BME280;34101;53.430;-2.224;2023-02-28T07:00:21;51951.37;;;-148.94;100.00
46682;BME280;34101;53.430;-2.224;2023-02-28T07:02:49;51850.47;;;-148.94;100.00
46682;BME280;34101;53.430;-2.224;2023-02-28T07:05:16;51753.03;;;-148.94;100.00
46682;BME280;34101;53.430;-2.224;2023-02-28T07:07:44;51807.70;;;-148.94;100.00
46682;BME280;34101;53.430;-2.224;2023-02-28T07:10:12;51796.95;;;-148.94;100.00
46682;BME280;34101;53.430;-2.224;2023-02-28T07:12:39;51777.61;;;-148.94;100.00
46682;BME280;34101;53.430;-2.224;2023-02-28T07:15:07;51657.25;;;-148.94;100.00
46682;BME280;34101;53.430;-2.224;2023-02-28T07:17:34;51706.04;;;-148.94;100.00
46682;BME280;34101;53.430;-2.224;2023-02-28T07:20:01;51708.21;;;-148.94;100.00
46682;BME280;34101;53.430;-2.224;2023-02-28T07:22:29;51630.11;;;-148.94;100.00
46682;BME280;34101;53.430;-2.224;2023-02-28T07:24:56;51778.00;;;-148.94;100.00
46682;BME280;34101;53.430;-2.224;2023-02-28T07:27:24;52062.27;;;-148.94;100.00
46682;BME280;34101;53.430;-2.224;2023-02-28T07:29:52;52006.56;;;-148.94;100.00
46682;BME280;34101;53.430;-2.224;2023-02-28T07:32:20;51813.34;;;-148.94;100.00
46682;BME280;34101;53.430;-2.224;2023-02-28T07:34:47;51762.25;;;-148.94;100.00
46682;BME280;34101;53.430;-2.224;2023-02-28T07:37:14;51905.79;;;-148.94;100.00
46682;BME280;34101;53.430;-2.224;2023-02-28T07:39:41;51880.05;;;-148.94;100.00
46682;BME280;34101;53.430;-2.224;2023-02-28T07:42:09;51969.30;;;-148.94;100.00
46682;BME280;34101;53.430;-2.224;2023-02-28T07:44:37;52083.14;;;-148.94;100.00
46682;BME280;34101;53.430;-2.224;2023-02-28T07:47:05;52234.50;;;-148.94;100.00
46682;BME280;34101;53.430;-2.224;2023-02-28T07:49:32;52264.85;;;-148.94;100.00
46682;BME280;34101;53.430;-2.224;2023-02-28T07:52:00;52304.94;;;-148.94;100.00
46682;BME280;34101;53.430;-2.224;2023-02-28T07:54:27;52408.93;;;-148.94;100.00
46682;BME280;34101;53.430;-2.224;2023-02-28T07:56:54;52314.29;;;-148.94;100.00
46682;BME280;34101;53.430;-2.224;2023-02-28T07:59:22;52020.65;;;-148.94;100.00
46682;BME280;34101;53.430;-2.224;2023-02-28T08:01:49;51822.17;;;-148.94;100.00
46682;BME280;34101;53.430;-2.224;2023-02-28T08:04:17;51835.62;;;-148.94;100.00
46682;BME280;34101;53.430;-2.224;2023-02-28T08:06:45;51844.84;;;-148.94;100.00
46682;BME280;34101;53.430;-2.224;2023-02-28T08:09:12;51844.20;;;-148.94;100.00
46682;BME280;34101;53.430;-2.224;2023-02-28T08:11:40;51514.10;;;-148.94;100.00
46682;BME280;34101;53.430;-2.224;2023-02-28T08:14:08;51513.72;;;-148.94;100.00
46682;BME280;34101;53.430;-2.224;2023-02-28T08:16:35;51755.46;;;-148.94;100.00
46682;BME280;34101;53.430;-2.224;2023-02-28T08:19:02;52227.97;;;-148.94;100.00
46682;BME280;34101;53.430;-2.224;2023-02-28T08:21:30;52478.47;;;-148.94;100.00
46682;BME280;34101;53.430;-2.224;2023-02-28T08:23:57;52755.49;;;-148.94;100.00
46682;BME280;34101;53.430;-2.224;2023-02-28T08:26:24;52476.03;;;-148.94;100.00
46682;BME280;34101;53.430;-2.224;2023-02-28T08:28:52;52263.96;;;-148.94;100.00
46682;BME280;34101;53.430;-2.224;2023-02-28T08:31:19;52640.73;;;-148.94;100.00
46682;BME280;34101;53.430;-2.224;2023-02-28T08:33:47;52516.63;;;-148.94;100.00
46682;BME280;34101;53.430;-2.224;2023-02-28T08:36:14;52483.59;;;-148.94;100.00
46682;BME280;34101;53.430;-2.224;2023-02-28T08:38:42;52409.69;;;-148.94;100.00
46682;BME280;34101;53.430;-2.224;2023-02-28T08:41:11;52264.73;;;-148.94;100.00
46682;BME280;34101;53.430;-2.224;2023-02-28T08:43:39;51897.08;;;-148.94;100.00
46682;BME280;34101;53.430;-2.224;2023-02-28T08:46:13;51774.92;;;-148.94;100.00
46682;BME280;34101;53.430;-2.224;2023-02-28T08:48:41;51691.57;;;-148.94;100.00
46682;BME280;34101;53.430;-2.224;2023-02-28T08:51:09;52037.17;;;-148.94;100.00
46682;BME280;34101;53.430;-2.224;2023-02-28T08:53:39;52139.74;;;-148.94;100.00
46682;BME280;34101;53.430;-2.224;2023-02-28T08:56:09;51876.46;;;-148.94;100.00
46682;BME280;34101;53.430;-2.224;2023-02-28T08:58:36;51618.20;;;-148.94;100.00
46682;BME280;34101;53.430;-2.224;2023-02-28T09:01:08;51296.58;;;-148.94;100.00
46682;BME280;34101;53.430;-2.224;2023-02-28T09:03:36;51246.64;;;-148.94;100.00
46682;BME280;34101;53.430;-2.224;2023-02-28T09:06:04;50796.52;;;-148.94;100.00
46682;BME280;34101;53.430;-2.224;2023-02-28T09:08:32;50723.81;;;-148.94;100.00
46682;BME280;34101;53.430;-2.224;2023-02-28T09:10:59;50259.93;;;-148.94;100.00
46682;BME280;34101;53.430;-2.224;2023-02-28T09:13:27;49424.97;;;-148.94;100.00
46682;BME280;34101;53.430;-2.224;2023-02-28T09:15:56;48469.28;;;-148.94;97.66
46682;BME280;34101;53.430;-2.224;2023-02-28T09:18:24;46604.77;;;-148.94;91.75
46682;BME280;34101;53.430;-2.224;2023-02-28T09:20:52;46196.61;;;-148.94;81.63
46682;BME280;34101;53.430;-2.224;2023-02-28T09:23:19;46901.20;;;-148.94;78.11
46682;BME280;34101;53.430;-2.224;2023-02-28T09:25:48;46956.19;;;-148.94;78.43
46682;BME280;34101;53.430;-2.224;2023-02-28T09:28:16;46844.42;;;-148.94;78.68
46682;BME280;34101;53.430;-2.224;2023-02-28T09:30:45;46627.15;;;-148.94;81.49
46682;BME280;34101;53.430;-2.224;2023-02-28T09:33:14;46340.33;;;-148.94;76.61
46682;BME280;34101;53.430;-2.224;2023-02-28T09:35:41;46409.76;;;-148.94;80.30
46682;BME280;34101;53.430;-2.224;2023-02-28T09:38:10;45991.77;;;-148.94;76.35
46682;BME280;34101;53.430;-2.224;2023-02-28T09:40:47;45534.32;;;-148.94;73.29
46682;BME280;34101;53.430;-2.224;2023-02-28T09:43:16;45542.25;;;-148.94;71.13
46682;BME280;34101;53.430;-2.224;2023-02-28T09:45:48;45357.14;;;-148.94;71.28
46682;BME280;34101;53.430;-2.224;2023-02-28T09:48:21;45594.92;;;-148.94;68.47
46682;BME280;34101;53.430;-2.224;2023-02-28T09:50:53;46739.43;;;-148.94;70.29
46682;BME280;34101;53.430;-2.224;2023-02-28T09:53:28;46979.09;;;-148.94;73.52
46682;BME280;34101;53.430;-2.224;2023-02-28T09:55:58;46644.28;;;-148.94;72.10
46682;BME280;34101;53.430;-2.224;2023-02-28T09:58:33;46577.40;;;-148.94;71.89
46682;BME280;34101;53.430;-2.224;2023-02-28T10:01:07;46370.89;;;-148.94;68.06
46682;BME280;34101;53.430;-2.224;2023-02-28T10:03:39;46368.20;;;-148.94;69.42
46682;BME280;34101;53.430;-2.224;2023-02-28T10:06:16;46238.80;;;-148.94;71.29
46682;BME280;34101;53.430;-2.224;2023-02-28T10:08:53;46031.41;;;-148.94;70.24
46682;BME280;34101;53.430;-2.224;2023-02-28T10:11:24;45461.96;;;-148.94;70.18
46682;BME280;34101;53.430;-2.224;2023-02-28T10:13:56;45374.91;;;-148.94;67.59
46682;BME280;34101;53.430;-2.224;2023-02-28T10:16:29;45508.37;;;-148.94;69.57
46682;BME280;34101;53.430;-2.224;2023-02-28T10:19:03;45771.35;;;-148.94;65.53
46682;BME280;34101;53.430;-2.224;2023-02-28T10:21:36;45506.71;;;-148.94;67.09
46682;BME280;34101;53.430;-2.224;2023-02-28T10:24:16;44575.49;;;-148.94;67.94
46682;BME280;34101;53.430;-2.224;2023-02-28T10:26:47;42787.17;;;-148.94;66.03
46682;BME280;34101;53.430;-2.224;2023-02-28T10:29:15;41557.47;;;-148.94;60.27
46682;BME280;34101;53.430;-2.224;2023-02-28T10:31:42;41267.32;;;-148.94;60.21
46682;BME280;34101;53.430;-2.224;2023-02-28T10:34:12;42037.71;;;-148.94;58.27
46682;BME280;34101;53.430;-2.224;2023-02-28T10:36:42;42388.98;;;-148.94;58.15
46682;BME280;34101;53.430;-2.224;2023-02-28T10:39:43;42696.72;;;-148.94;57.24
46682;BME280;34101;53.430;-2.224;2023-02-28T10:42:21;43112.70;;;-148.94;58.58
46682;BME280;34101;53.430;-2.224;2023-02-28T10:44:49;43910.92;;;-148.94;58.41
46682;BME280;34101;53.430;-2.224;2023-02-28T10:47:18;43877.19;;;-148.94;59.13
46682;BME280;34101;53.430;-2.224;2023-02-28T10:49:48;44307.99;;;-148.94;59.91
46682;BME280;34101;53.430;-2.224;2023-02-28T10:52:33;44894.65;;;-148.94;59.35
46682;BME280;34101;53.430;-2.224;2023-02-28T10:55:23;45071.30;;;-148.94;59.25
46682;BME280;34101;53.430;-2.224;2023-02-28T10:57:51;45915.19;;;-148.94;59.41
46682;BME280;34101;53.430;-2.224;2023-02-28T11:00:22;45650.53;;;-148.94;58.52
46682;BME280;34101;53.430;-2.224;2023-02-28T11:02:50;45447.39;;;-148.94;58.34
46682;BME280;34101;53.430;-2.224;2023-02-28T11:05:27;45449.95;;;-148.94;58.26
46682;BME280;34101;53.430;-2.224;2023-02-28T11:07:59;45387.69;;;-148.94;57.76
46682;BME280;34101;53.430;-2.224;2023-02-28T11:10:31;45458.64;;;-148.94;59.45
46682;BME280;34101;53.430;-2.224;2023-02-28T11:12:59;44362.31;;;-148.94;58.67
46682;BME280;34101;53.430;-2.224;2023-02-28T11:15:28;43171.73;;;-148.94;58.55
46682;BME280;34101;53.430;-2.224;2023-02-28T11:17:58;43342.43;;;-148.94;53.46
46682;BME280;34101;53.430;-2.224;2023-02-28T11:20:29;43051.12;;;-148.94;53.43
46682;BME280;34101;53.430;-2.224;2023-02-28T11:22:57;42526.30;;;-148.94;51.99
46682;BME280;34101;53.430;-2.224;2023-02-28T11:25:28;40226.02;;;-148.94;52.14
46682;BME280;34101;53.430;-2.224;2023-02-28T11:28:00;38486.38;;;-148.94;48.83
46682;BME280;34101;53.430;-2.224;2023-02-28T11:30:36;36961.43;;;-148.94;49.96
46682;BME280;34101;53.430;-2.224;2023-02-28T11:33:42;34535.00;;;-148.94;48.26
46682;BME280;34101;53.430;-2.224;2023-02-28T11:36:13;34227.65;;;-148.94;45.86
46682;BME280;34101;53.430;-2.224;2023-02-28T11:38:41;35025.22;;;-148.94;45.87
46682;BME280;34101;53.430;-2.224;2023-02-28T11:41:21;36851.47;;;-148.94;46.91
46682;BME280;34101;53.430;-2.224;2023-02-28T11:44:08;35927.78;;;-148.94;47.04
46682;BME280;34101;53.430;-2.224;2023-02-28T11:46:48;36315.37;;;-148.94;47.12
46682;BME280;34101;53.430;-2.224;2023-02-28T11:49:27;36614.21;;;-148.94;47.39
46682;BME280;34101;53.430;-2.224;2023-02-28T11:52:01;36961.81;;;-148.94;47.46
46682;BME280;34101;53.430;-2.224;2023-02-28T11:54:38;37706.74;;;-148.94;48.56
46682;BME280;34101;53.430;-2.224;2023-02-28T11:57:28;38384.55;;;-148.94;48.34
46682;BME280;34101;53.430;-2.224;2023-02-28T12:00:04;39074.98;;;-148.94;48.78
46682;BME280;34101;53.430;-2.224;2023-02-28T12:02:48;39287.50;;;-148.94;49.63
46682;BME280;34101;53.430;-2.224;2023-02-28T12:05:24;40732.65;;;-148.94;50.25
46682;BME280;34101;53.430;-2.224;2023-02-28T12:08:08;41374.21;;;-148.94;52.40
46682;BME280;34101;53.430;-2.224;2023-02-28T12:10:48;42033.11;;;-148.94;52.72
46682;BME280;34101;53.430;-2.224;2023-02-28T12:13:23;42593.75;;;-148.94;53.42
46682;BME280;34101;53.430;-2.224;2023-02-28T12:16:20;42973.95;;;-148.94;53.71
46682;BME280;34101;53.430;-2.224;2023-02-28T12:19:00;43244.55;;;-148.94;54.21
46682;BME280;34101;53.430;-2.224;2023-02-28T12:21:42;43737.90;;;-148.94;54.61
46682;BME280;34101;53.430;-2.224;2023-02-28T12:24:25;43785.44;;;-148.94;55.59
46682;BME280;34101;53.430;-2.224;2023-02-28T12:26:59;43997.69;;;-148.94;55.14
46682;BME280;34101;53.430;-2.224;2023-02-28T12:29:32;43749.91;;;-148.94;54.75
46682;BME280;34101;53.430;-2.224;2023-02-28T12:32:05;43804.22;;;-148.94;55.82
46682;BME280;34101;53.430;-2.224;2023-02-28T12:34:37;43896.99;;;-148.94;57.73
46682;BME280;34101;53.430;-2.224;2023-02-28T12:37:10;43895.84;;;-148.94;58.43
46682;BME280;34101;53.430;-2.224;2023-02-28T12:39:44;43573.06;;;-148.94;57.35
46682;BME280;34101;53.430;-2.224;2023-02-28T12:42:14;43313.42;;;-148.94;57.49